KOOA/OOA METAR and TAF weather

Enter ICAO airport designator
Station Type Date Time Source
KOOA METAR 2020/07/05 16:35 UTC NOAA

KOOA 051635Z AUTO 00000KT 31/21 A3003 RMK AO2 T03090205 PWINO


Station Type Date Time Source
KOOA Decoded METAR 2020/07/05 16:35 UTC NOAA

Oskaloosa, Oskaloosa Municipal Airport, IA, United States (KOOA) 41-13-34N 092-29-37W
Jul 05, 2020 - 12:35 PM EDT / 2020.07.05 1635 UTC
Wind: Calm:0
Temperature: 87.6 F (30.9 C)
Dew Point: 68.9 F (20.5 C)
Relative Humidity: 53%
Pressure (altimeter): 30.03 in. Hg (1016 hPa)
ob: KOOA 051635Z AUTO 00000KT 31/21 A3003 RMK AO2 T03090205 PWINO
cycle: 16

Station Type Date Time Source
KOOA TAF UTC NOAA

Error!

Example: see airport list